Delta Ios — SVAK9 — position and weather

sailwx.info

Track history (hours):
 
Tides and Currents Weather Stations Pressure Air Temp Water Temp Dewpoint Dewpoint Depression Visibility Wind Speed Wind Dir Waves Ship Positions

Delta Ios

Last reported at 2014-Sep-02 17:16 UTC. Time now 2014-Sep-03 07:13 UTC.
Position N 39°55' E 000°04'.

Length 276 m; draft 16 m.

Type: Tanker. MMSI: 240821000.

Date/timePositionNaut miles runAvg speedWind from/ knotsBaromVisibWave heightAir tempDewpointWater temp
2014-Sep-02 17:16N 39°55' E 000°04'0 0.0
2014-Aug-31 16:15N 39°55' E 000°04'0 0.0
2014-Aug-31 14:33N 39°55' E 000°04'60 1.5
2014-Aug-29 21:18N 38°58' E 000°26'911.7
2014-Aug-29 20:33N 38°49' E 000°28'1110.1
2014-Aug-29 19:28N 38°38' E 000°25'1011.1
2014-Aug-29 18:34N 38°30' E 000°17'1110.8
2014-Aug-29 17:33N 38°21' E 000°10'1010.3
2014-Aug-29 16:33N 38°13' E 000°02'1110.6
2014-Aug-29 15:33N 38°04' W 000°05'1110.9
2014-Aug-29 14:33N 37°54' W 000°13'1111.1
2014-Aug-29 13:33N 37°45' W 000°21'1111.0
2014-Aug-29 12:33N 37°36' W 000°28'1110.8
2014-Aug-29 11:32N 37°28' W 000°38'1211.0
2014-Aug-29 10:26N 37°20' W 000°49'1010.9
2014-Aug-29 09:32N 37°14' W 000°58'1110.7
2014-Aug-29 08:31N 37°06' W 001°09'6510.8
2014-Aug-29 02:34N 36°24' W 002°09'1110.7
2014-Aug-29 01:34N 36°21' W 002°22'14511.2
2014-Aug-28 12:33N 35°59' W 005°20'9610.4
2014-Aug-28 03:22N 35°07' W 006°59'911.4
2014-Aug-28 02:33N 35°00' W 007°07'1211.5
2014-Aug-28 01:34N 34°52' W 007°17'4911.2
2014-Aug-27 21:14N 34°19' W 008°00'1911.2
2014-Aug-27 19:33N 34°06' W 008°17'1111.0
2014-Aug-27 18:33N 33°59' W 008°27'1110.8
2014-Aug-27 17:33N 33°51' W 008°36'1010.4
2014-Aug-27 16:33N 33°44' W 008°45'3710.6
2014-Aug-27 13:06N 33°20' W 009°18'611.1
2014-Aug-27 12:33N 33°16' W 009°23'4511.1
2014-Aug-27 08:28N 32°45' W 010°03'1010.6
2014-Aug-27 07:33N 32°38' W 010°11'2110.3
2014-Aug-27 05:33N 32°24' W 010°29'1110.2
2014-Aug-27 04:27N 32°17' W 010°39'910.6
2014-Aug-27 03:33N 32°10' W 010°47'1210.5
2014-Aug-27 02:27N 32°03' W 010°57'1310.2
2014-Aug-27 01:11N 31°54' W 011°08'610.1
2014-Aug-27 00:33N 31°49' W 011°14'18911.0
2014-Aug-26 07:23N 29°41' W 013°54'173 9.7
2014-Aug-25 13:33N 27°06' W 015°24'  
Track history (hours):
 
Tides and Currents Weather Stations Pressure Air Temp Water Temp Dewpoint Dewpoint Depression Visibility Wind Speed Wind Dir Waves Ship Positions

Delta Ios

Last reported at 2014-Sep-02 17:16 UTC. Time now 2014-Sep-03 07:13 UTC.
Position N 39°55' E 000°04'.

Length 276 m; draft 16 m.

Type: Tanker. MMSI: 240821000.

Date/timePositionNaut miles runAvg speedWind from/ knotsBaromVisibWave heightAir tempDewpointWater temp
2014-Sep-02 17:16N 39°55' E 000°04'0 0.0
2014-Aug-31 16:15N 39°55' E 000°04'0 0.0
2014-Aug-31 14:33N 39°55' E 000°04'60 1.5
2014-Aug-29 21:18N 38°58' E 000°26'911.7
2014-Aug-29 20:33N 38°49' E 000°28'1110.1
2014-Aug-29 19:28N 38°38' E 000°25'1011.1
2014-Aug-29 18:34N 38°30' E 000°17'1110.8
2014-Aug-29 17:33N 38°21' E 000°10'1010.3
2014-Aug-29 16:33N 38°13' E 000°02'1110.6
2014-Aug-29 15:33N 38°04' W 000°05'1110.9
2014-Aug-29 14:33N 37°54' W 000°13'1111.1
2014-Aug-29 13:33N 37°45' W 000°21'1111.0
2014-Aug-29 12:33N 37°36' W 000°28'1110.8
2014-Aug-29 11:32N 37°28' W 000°38'1211.0
2014-Aug-29 10:26N 37°20' W 000°49'1010.9
2014-Aug-29 09:32N 37°14' W 000°58'1110.7
2014-Aug-29 08:31N 37°06' W 001°09'6510.8
2014-Aug-29 02:34N 36°24' W 002°09'1110.7
2014-Aug-29 01:34N 36°21' W 002°22'14511.2
2014-Aug-28 12:33N 35°59' W 005°20'9610.4
2014-Aug-28 03:22N 35°07' W 006°59'911.4
2014-Aug-28 02:33N 35°00' W 007°07'1211.5
2014-Aug-28 01:34N 34°52' W 007°17'4911.2
2014-Aug-27 21:14N 34°19' W 008°00'1911.2
2014-Aug-27 19:33N 34°06' W 008°17'1111.0
2014-Aug-27 18:33N 33°59' W 008°27'1110.8
2014-Aug-27 17:33N 33°51' W 008°36'1010.4
2014-Aug-27 16:33N 33°44' W 008°45'3710.6
2014-Aug-27 13:06N 33°20' W 009°18'611.1
2014-Aug-27 12:33N 33°16' W 009°23'4511.1
2014-Aug-27 08:28N 32°45' W 010°03'1010.6
2014-Aug-27 07:33N 32°38' W 010°11'2110.3
2014-Aug-27 05:33N 32°24' W 010°29'1110.2
2014-Aug-27 04:27N 32°17' W 010°39'910.6
2014-Aug-27 03:33N 32°10' W 010°47'1210.5
2014-Aug-27 02:27N 32°03' W 010°57'1310.2
2014-Aug-27 01:11N 31°54' W 011°08'610.1
2014-Aug-27 00:33N 31°49' W 011°14'18911.0
2014-Aug-26 07:23N 29°41' W 013°54'173 9.7
2014-Aug-25 13:33N 27°06' W 015°24'  

Dump ship's entire track history